Goodman, Mississippi
Current Conditions -  °F | °C
As of 12:53 PM on Tuesday 27 Jan 2015 (Local Time) from KGWO Reporting Station
Clear Clear  
Wind Chill: 60°   Ceiling: Unl
Heat Index: 60°   Visibility: 10mi
Dew Point: 37°   Wind: 8mph
Humidity: 42%   Direction: 350°N
Pressure: 30.11"   Gusts: NA
Location:  32.97°N, 89.91°W
Report Text: KGWO 271853Z AUTO 35007KT 310V020 10SM CLR 16/03 A3011 RMK AO2 SLP196 T01560028
Loading
Personal Weather Stations






























Interactive Weather Map New forecast layout! Learn more

10-Day Weather Forecast

Advertisements
Track Severe Weather on mobile